Terminal Aerodrome Forecast
Issued by NWS Binghamton, NY

Home | Current Version | Previous Version | Text Only | Print | Product List | Glossary On
Versions: 1 2 3 4 5 6 7 8 9 10 11 12 13 14 15 16 17
000
FTUS41 KBGM 211100
TAFAVP
TAF
KAVP 211139Z 2112/2212 VRB03KT P6SM FEW025 SCT080
      TEMPO 2112/2114 OVC025
     FM211400 22005KT P6SM BKN040
     FM212100 23005KT 5SM SHRA BR BKN025 OVC040
     FM220300 VRB03KT 4SM BR BKN025=

USA.gov is the U.S. government's official web portal to all federal, state and local government web resources and services.